Time;durP1;ratioP1;P1;durP2;ratioP2;P2;SDS_P1;SDS_P2;PMS_P1;PMS_P2;Temp;Humidity;BMP_temperature;BMP_pressure;BME280_temperature;BME280_humidity;BME280_pressure;Samples;Min_cycle;Max_cycle;Signal;HPM_P1;HPM_P2
2024/04/11 00:02:20;;;;;;;10.10;4.30;;;;;;;21.03;33.52;99923.02;82010;1297;3012685;-59
2024/04/11 00:04:46;;;;;;;13.10;4.60;;;;;;;20.98;33.75;99920.14;81934;1297;3013145;-61
2024/04/11 00:07:14;;;;;;;7.30;4.00;;;;;;;20.86;34.20;99928.66;80732;1296;3025624;-59
2024/04/11 00:09:41;;;;;;;6.80;3.90;;;;;;;20.80;34.25;99929.73;81984;1295;3018409;-62
2024/04/11 00:12:08;;;;;;;8.00;4.50;;;;;;;20.70;34.43;99936.10;81985;1296;3011203;-60
2024/04/11 00:14:36;;;;;;;9.30;4.60;;;;;;;20.59;34.51;99934.14;80685;1298;3018442;-60
2024/04/11 00:17:02;;;;;;;6.10;4.10;;;;;;;20.56;34.77;99940.54;81992;1295;3013119;-58
2024/04/11 00:19:29;;;;;;;14.00;4.40;;;;;;;20.50;34.83;99944.08;81990;1297;3012762;-59
2024/04/11 00:21:58;;;;;;;10.00;4.50;;;;;;;20.46;34.94;99943.80;80681;1295;3068155;-59
2024/04/11 00:24:25;;;;;;;9.50;4.20;;;;;;;20.38;35.06;99947.40;81958;1296;3013205;-59
2024/04/11 00:26:51;;;;;;;6.30;4.30;;;;;;;20.27;35.24;99946.58;81949;1295;3011365;-58
2024/04/11 00:29:19;;;;;;;8.70;4.30;;;;;;;20.27;35.14;99944.27;80655;1297;3025809;-60
2024/04/11 00:31:45;;;;;;;8.30;4.70;;;;;;;20.30;35.10;99943.34;81959;1298;3017936;-57
2024/04/11 00:34:23;;;;;;;18.40;5.10;;;;;;;20.30;35.11;99945.45;81946;1296;3013019;-59
2024/04/11 00:36:53;;;;;;;9.10;5.30;;;;;;;20.29;35.15;99946.73;80722;1295;3069407;-58
2024/04/11 00:39:23;;;;;;;7.90;4.70;;;;;;;20.25;35.29;99947.67;81971;1296;3011501;-61
2024/04/11 00:41:51;;;;;;;8.10;4.60;;;;;;;20.21;35.29;99948.23;80737;1296;3048395;-60
2024/04/11 00:44:18;;;;;;;11.80;4.80;;;;;;;20.14;35.51;99952.58;81979;1298;3012866;-62
2024/04/11 00:46:45;;;;;;;9.90;5.10;;;;;;;20.13;35.45;99948.07;81944;1297;3013353;-60
2024/04/11 00:49:16;;;;;;;12.40;4.80;;;;;;;20.14;35.39;99944.64;80660;1297;3026134;-60
2024/04/11 00:51:42;;;;;;;13.20;5.10;;;;;;;20.12;35.47;99947.29;81980;1295;3013126;-60
2024/04/11 00:54:11;;;;;;;9.70;5.20;;;;;;;20.04;35.53;99946.65;81445;1297;3011296;-59
2024/04/11 00:56:43;;;;;;;8.70;5.60;;;;;;;19.97;35.57;99945.14;81973;1297;3013291;-59
2024/04/11 00:59:14;;;;;;;6.20;4.50;;;;;;;19.90;35.83;99952.73;80713;1295;3049352;-60
2024/04/11 01:01:41;;;;;;;8.90;4.90;;;;;;;19.90;35.81;99951.80;81984;1295;3012916;-60
2024/04/11 01:04:10;;;;;;;12.60;5.20;;;;;;;19.89;35.78;99954.21;81425;1295;3011179;-59
2024/04/11 01:09:44;;;;;;;11.30;4.70;;;;;;;19.76;36.20;99955.74;80731;1295;3060059;-58
2024/04/11 01:12:16;;;;;;;9.10;5.90;;;;;;;19.74;36.30;99958.03;80723;1295;3051769;-61
2024/04/11 01:14:44;;;;;;;25.70;9.40;;;;;;;19.69;36.45;99956.02;81959;1297;3013460;-63
2024/04/11 01:17:16;;;;;;;23.40;11.40;;;;;;;19.64;36.46;99956.77;80713;1295;3049114;-63
2024/04/11 01:19:42;;;;;;;28.50;13.10;;;;;;;19.59;36.91;99952.32;81952;1295;3011096;-62
2024/04/11 01:22:10;;;;;;;20.20;9.90;;;;;;;19.54;36.85;99952.56;80684;1295;3017190;-63
2024/04/11 01:24:40;;;;;;;22.00;10.10;;;;;;;19.53;36.83;99954.80;82026;1297;3013196;-63
2024/04/11 01:27:14;;;;;;;24.80;10.00;;;;;;;19.51;36.98;99957.62;81986;1296;3011591;-62
2024/04/11 01:29:42;;;;;;;22.00;9.90;;;;;;;19.49;37.11;99958.34;80693;1297;3052610;-63
2024/04/11 01:32:09;;;;;;;22.30;8.00;;;;;;;19.46;37.16;99955.55;81987;1298;3013271;-63
2024/04/11 01:34:36;;;;;;;17.30;8.10;;;;;;;19.43;37.04;99951.38;81989;1295;3011452;-63
2024/04/11 01:37:04;;;;;;;14.00;7.50;;;;;;;19.41;37.02;99953.17;80715;1295;3025712;-63
2024/04/11 01:39:31;;;;;;;14.10;7.10;;;;;;;19.41;37.14;99953.59;82016;1295;3018758;-63
2024/04/11 01:41:57;;;;;;;16.20;7.30;;;;;;;19.41;37.16;99954.60;81965;1296;3012653;-63
2024/04/11 01:44:27;;;;;;;14.40;7.80;;;;;;;19.38;37.18;99953.78;80725;1295;3027524;-63
2024/04/11 01:46:54;;;;;;;16.90;7.30;;;;;;;19.37;37.16;99951.25;82007;1295;3012879;-63
2024/04/11 01:49:21;;;;;;;15.40;7.90;;;;;;;19.40;36.93;99952.16;81967;1295;3011623;-63
2024/04/11 01:51:49;;;;;;;22.40;8.90;;;;;;;19.42;36.92;99954.17;80611;1297;3049060;-64
2024/04/11 01:54:16;;;;;;;24.20;12.00;;;;;;;19.39;36.99;99953.20;81956;1300;3013682;-63
2024/04/11 01:56:43;;;;;;;26.80;10.20;;;;;;;19.41;36.90;99954.10;81919;1295;3011467;-63
2024/04/11 01:59:11;;;;;;;17.00;7.90;;;;;;;19.44;36.70;99958.98;80654;1297;3017747;-62
2024/04/11 02:01:37;;;;;;;26.60;11.60;;;;;;;19.48;36.51;99956.31;81922;1296;3018020;-62
2024/04/11 02:04:05;;;;;;;32.20;12.20;;;;;;;19.48;36.77;99959.02;81939;1297;3011301;-63
2024/04/11 02:06:34;;;;;;;22.10;9.10;;;;;;;19.48;36.69;99956.83;80684;1297;3049246;-62
2024/04/11 02:09:05;;;;;;;22.80;8.50;;;;;;;19.50;36.67;99958.42;81924;1297;3012588;-63
2024/04/11 02:11:37;;;;;;;25.10;9.60;;;;;;;19.50;36.66;99956.08;80677;1297;3068370;-63
2024/04/11 02:14:03;;;;;;;27.70;11.60;;;;;;;19.51;36.80;99953.90;81962;1297;3011300;-63
2024/04/11 02:16:36;;;;;;;29.90;13.70;;;;;;;19.50;36.66;99953.84;80655;1297;3018294;-63
2024/04/11 02:19:08;;;;;;;21.10;10.90;;;;;;;19.48;36.67;99956.10;81946;1295;3012961;-63
2024/04/11 02:21:43;;;;;;;19.70;9.90;;;;;;;19.48;36.62;99958.10;80696;1295;3053352;-62
2024/04/11 02:24:18;;;;;;;16.50;9.80;;;;;;;19.47;36.86;99959.92;81332;1297;3011910;-63
2024/04/11 02:26:48;;;;;;;22.00;10.30;;;;;;;19.44;36.96;99957.35;81952;1297;3012565;-63
2024/04/11 02:29:16;;;;;;;22.40;10.00;;;;;;;19.41;36.82;99962.05;80691;1296;3044451;-61
2024/04/11 02:31:43;;;;;;;29.90;16.00;;;;;;;19.41;36.79;99961.86;81963;1297;3012463;-62
2024/04/11 02:34:10;;;;;;;24.20;12.20;;;;;;;19.41;36.79;99961.71;81901;1297;3011397;-62
2024/04/11 02:36:38;;;;;;;29.10;13.00;;;;;;;19.39;36.86;99969.86;80660;1297;3056630;-63
2024/04/11 02:39:07;;;;;;;27.40;13.00;;;;;;;19.40;36.74;99967.34;81939;1296;3018749;-62
2024/04/11 02:41:37;;;;;;;32.90;15.20;;;;;;;19.39;36.78;99966.66;81917;1297;3013250;-62
2024/04/11 02:44:05;;;;;;;13.50;9.10;;;;;;;19.36;37.35;99961.28;80655;1298;3053010;-62
2024/04/11 02:46:32;;;;;;;15.00;7.40;;;;;;;19.36;37.23;99964.52;81952;1296;3013220;-62
2024/04/11 02:48:58;;;;;;;13.80;7.10;;;;;;;19.36;37.29;99970.15;81890;1297;3012627;-62
2024/04/11 02:51:26;;;;;;;12.90;6.80;;;;;;;19.37;37.41;99969.01;80641;1297;3017286;-62
2024/04/11 02:53:55;;;;;;;17.30;5.60;;;;;;;19.39;37.43;99972.37;81943;1297;3013240;-62
2024/04/11 02:56:22;;;;;;;9.50;5.00;;;;;;;19.39;37.45;99971.09;81923;1297;3011444;-62
2024/04/11 02:58:50;;;;;;;35.50;17.00;;;;;;;19.38;37.19;99973.33;80613;1298;3051860;-62
2024/04/11 03:01:17;;;;;;;57.40;29.60;;;;;;;19.35;37.48;99972.36;81930;1297;3013312;-63
2024/04/11 03:03:43;;;;;;;36.20;17.40;;;;;;;19.32;37.63;99975.67;81915;1297;3011337;-63
2024/04/11 03:06:12;;;;;;;35.00;17.90;;;;;;;19.27;37.57;99980.57;80663;1296;3026547;-63
2024/04/11 03:08:42;;;;;;;39.60;20.80;;;;;;;19.18;37.76;99986.99;81976;1296;3013218;-62
2024/04/11 03:11:10;;;;;;;50.30;23.80;;;;;;;19.09;38.30;99987.62;80724;1295;3050487;-63
2024/04/11 03:13:38;;;;;;;49.20;25.30;;;;;;;19.03;38.55;99988.12;81948;1297;3011180;-62
2024/04/11 03:16:05;;;;;;;46.30;24.70;;;;;;;19.03;38.23;99988.37;81950;1297;3011247;-62
2024/04/11 03:18:35;;;;;;;59.00;29.40;;;;;;;19.01;38.16;99993.64;80716;1297;3043927;-62
2024/04/11 03:21:02;;;;;;;57.80;29.10;;;;;;;18.98;38.27;99990.36;81996;1298;3011254;-63
2024/04/11 03:23:31;;;;;;;56.70;31.00;;;;;;;18.99;38.47;99994.00;81423;1295;3010968;-62
2024/04/11 03:25:58;;;;;;;47.90;24.20;;;;;;;19.02;38.09;100000.00;81957;1296;3012423;-62
2024/04/11 03:28:26;;;;;;;38.50;18.40;;;;;;;19.04;38.10;99999.05;81966;1297;3011034;-62
2024/04/11 03:31:04;;;;;;;21.00;11.30;;;;;;;19.08;38.29;99999.27;80739;1297;3045740;-62
2024/04/11 03:33:32;;;;;;;21.40;12.00;;;;;;;19.14;38.06;99999.82;80715;1295;3060008;-62
2024/04/11 03:36:00;;;;;;;28.60;12.80;;;;;;;19.18;38.18;99997.09;81994;1296;3018814;-62
2024/04/11 03:38:28;;;;;;;28.80;11.70;;;;;;;19.23;37.97;99998.83;81987;1295;3011342;-63
2024/04/11 03:41:11;;;;;;;17.40;7.50;;;;;;;19.26;37.92;99999.30;80654;1297;3043937;-62
2024/04/11 03:43:42;;;;;;;17.20;9.20;;;;;;;19.31;38.02;100001.02;80685;1295;3041729;-62
2024/04/11 03:46:19;;;;;;;21.00;9.10;;;;;;;19.34;37.80;100001.23;81958;1296;3013344;-62
2024/04/11 03:48:55;;;;;;;20.90;10.10;;;;;;;19.37;37.85;100002.38;80718;1296;3043182;-62
2024/04/11 03:51:29;;;;;;;21.90;10.90;;;;;;;19.41;37.81;100005.77;81978;1296;3012907;-59
2024/04/11 03:53:58;;;;;;;;;;;;;;;19.44;37.66;100009.92;80698;1296;3051393;-58
2024/04/11 03:56:27;;;;;;;26.50;12.30;;;;;;;19.43;37.73;100016.21;82016;1296;3011402;-59
2024/04/11 03:58:57;;;;;;;24.30;13.30;;;;;;;19.46;37.84;100012.80;81442;1295;3011096;-60
2024/04/11 04:01:27;;;;;;;32.40;15.20;;;;;;;19.46;37.75;100016.30;81996;1295;3011072;-60
2024/04/11 04:04:05;;;;;;;36.10;14.40;;;;;;;19.48;37.83;100020.99;80688;1299;3051803;-60
2024/04/11 04:06:33;;;;;;;32.10;14.50;;;;;;;19.49;38.01;100024.77;80704;1299;3054318;-60
2024/04/11 04:09:01;;;;;;;34.60;15.10;;;;;;;19.51;37.78;100021.20;81972;1300;3011684;-60
2024/04/11 04:11:28;;;;;;;29.80;14.90;;;;;;;19.53;37.89;100025.80;81994;1296;3011298;-61
2024/04/11 04:13:57;;;;;;;41.60;15.20;;;;;;;19.55;37.96;100029.05;80676;1295;3040135;-63
2024/04/11 04:16:23;;;;;;;33.40;14.60;;;;;;;19.58;37.87;100029.67;81968;1296;3013173;-60
2024/04/11 04:18:50;;;;;;;34.10;15.60;;;;;;;19.60;37.93;100033.52;81994;1295;3013138;-61
2024/04/11 04:21:26;;;;;;;31.50;14.30;;;;;;;19.62;37.95;100033.20;80720;1294;3043787;-62
2024/04/11 04:23:55;;;;;;;29.40;12.70;;;;;;;19.66;38.10;100032.86;81418;1298;3011619;-60
2024/04/11 04:26:22;;;;;;;26.60;12.10;;;;;;;19.69;38.17;100038.84;82040;1294;3013105;-61
2024/04/11 04:28:49;;;;;;;32.70;11.70;;;;;;;19.71;38.32;100035.40;81969;1296;3011406;-62
2024/04/11 04:31:25;;;;;;;23.30;10.50;;;;;;;19.75;38.14;100039.33;80705;1295;3048783;-61
2024/04/11 04:33:53;;;;;;;28.00;11.40;;;;;;;19.78;38.10;100036.79;80720;1295;3044135;-60
2024/04/11 04:36:26;;;;;;;29.00;12.00;;;;;;;19.81;38.07;100038.09;82030;1300;3012519;-59
2024/04/11 04:38:57;;;;;;;26.00;11.10;;;;;;;19.85;37.95;100041.34;80745;1299;3051807;-61
2024/04/11 04:41:26;;;;;;;26.50;11.70;;;;;;;19.88;38.52;100038.23;81998;1294;3011137;-59
2024/04/11 04:43:55;;;;;;;24.20;10.70;;;;;;;19.88;38.61;100042.46;80747;1294;3043156;-62
2024/04/11 04:46:23;;;;;;;27.40;10.50;;;;;;;19.90;38.28;100045.27;82007;1294;3012360;-61
2024/04/11 04:48:49;;;;;;;30.30;11.20;;;;;;;19.93;38.41;100045.75;81999;1295;3011246;-61
2024/04/11 04:51:19;;;;;;;27.50;11.10;;;;;;;19.97;38.59;100046.09;80742;1294;3050064;-62
2024/04/11 04:53:52;;;;;;;41.00;11.70;;;;;;;20.02;38.96;100044.02;82006;1297;3012674;-63
2024/04/11 04:56:22;;;;;;;;;;;;;;;20.07;38.88;100048.79;80752;1295;3068001;-61
2024/04/11 04:58:51;;;;;;;23.50;9.80;;;;;;;20.07;38.98;100047.83;82003;1294;3012384;-60
2024/04/11 05:01:20;;;;;;;25.70;9.70;;;;;;;20.12;39.07;100046.87;80729;1295;3026358;-61
2024/04/11 05:03:48;;;;;;;26.20;10.20;;;;;;;20.16;39.21;100045.48;81957;1295;3012528;-61
2024/04/11 05:06:17;;;;;;;20.00;9.90;;;;;;;20.21;39.16;100049.59;81434;1295;3011848;-60
2024/04/11 05:08:47;;;;;;;24.10;10.40;;;;;;;20.25;39.00;100048.02;81998;1294;3012671;-59
2024/04/11 05:11:16;;;;;;;27.00;10.70;;;;;;;20.31;39.07;100052.98;80733;1300;3052878;-63
2024/04/11 05:13:43;;;;;;;26.30;10.10;;;;;;;20.39;39.16;100054.36;82017;1295;3012655;-58
2024/04/11 05:16:10;;;;;;;25.60;10.90;;;;;;;20.49;39.13;100061.64;82004;1294;3011150;-61
2024/04/11 05:18:39;;;;;;;19.00;10.80;;;;;;;20.55;39.03;100056.58;80733;1294;3048823;-62
2024/04/11 05:21:12;;;;;;;25.50;11.90;;;;;;;20.62;39.15;100056.67;81949;1296;3012342;-60
2024/04/11 05:23:42;;;;;;;;;;;;;;;20.67;40.21;100055.14;80778;1294;3052038;-60
2024/04/11 05:26:13;;;;;;;27.90;12.00;;;;;;;20.69;40.34;100058.75;82010;1298;3012723;-62
2024/04/11 05:28:44;;;;;;;28.40;14.10;;;;;;;20.76;40.38;100056.14;80669;1298;3069106;-62
2024/04/11 05:31:14;;;;;;;27.40;13.70;;;;;;;20.82;40.34;100058.27;82013;1295;3013182;-59
2024/04/11 05:33:47;;;;;;;27.40;13.50;;;;;;;20.88;40.29;100056.39;80673;1296;3047839;-61
2024/04/11 05:36:17;;;;;;;30.10;13.70;;;;;;;20.98;40.50;100058.29;81966;1295;3011577;-60
2024/04/11 05:38:46;;;;;;;30.50;14.50;;;;;;;21.04;40.41;100059.70;80710;1294;3044519;-60
2024/04/11 05:41:14;;;;;;;35.20;14.20;;;;;;;21.12;40.48;100058.23;81943;1294;3012657;-60
2024/04/11 05:43:44;;;;;;;34.50;14.00;;;;;;;21.19;40.77;100061.33;81984;1295;3011350;-60
2024/04/11 05:46:15;;;;;;;28.80;13.90;;;;;;;21.25;40.89;100065.54;80754;1297;3068632;-61
2024/04/11 05:48:42;;;;;;;35.20;15.50;;;;;;;21.33;41.11;100065.11;81973;1297;3012620;-61
2024/04/11 05:51:11;;;;;;;34.60;16.70;;;;;;;21.42;41.29;100068.73;81396;1295;3011405;-60
2024/04/11 05:53:37;;;;;;;37.00;15.30;;;;;;;21.51;41.75;100066.63;82009;1294;3012515;-61
2024/04/11 05:56:05;;;;;;;50.20;16.50;;;;;;;21.59;41.76;100064.91;81996;1298;3011343;-62
2024/04/11 05:58:33;;;;;;;35.90;15.90;;;;;;;21.66;41.95;100065.52;80700;1294;3053178;-61
2024/04/11 06:01:05;;;;;;;30.90;14.80;;;;;;;21.75;42.34;100061.27;81980;1295;3018046;-59
2024/04/11 06:03:34;;;;;;;30.60;14.50;;;;;;;21.82;42.69;100060.80;80732;1295;3043414;-60
2024/04/11 06:06:00;;;;;;;25.70;13.80;;;;;;;21.90;42.46;100060.38;81976;1295;3012805;-59
2024/04/11 06:08:27;;;;;;;40.80;16.00;;;;;;;21.98;42.77;100062.98;81962;1295;3011246;-60
2024/04/11 06:10:56;;;;;;;35.60;15.00;;;;;;;22.02;43.41;100062.37;80735;1296;3040242;-62
2024/04/11 06:13:23;;;;;;;31.80;13.60;;;;;;;22.08;43.46;100066.37;81902;1299;3012553;-60
2024/04/11 06:15:50;;;;;;;38.10;16.20;;;;;;;22.13;43.57;100063.96;82023;1297;3011547;-62
2024/04/11 06:18:19;;;;;;;37.00;15.30;;;;;;;22.16;43.75;100066.88;80738;1295;3043695;-60
2024/04/11 06:20:46;;;;;;;37.90;16.00;;;;;;;22.21;43.92;100069.73;81970;1295;3012621;-59
2024/04/11 06:23:15;;;;;;;34.20;14.60;;;;;;;22.27;43.70;100071.85;81994;1296;3011394;-63
2024/04/11 06:25:44;;;;;;;31.60;15.20;;;;;;;22.31;43.58;100072.19;80676;1298;3049563;-60
2024/04/11 06:28:14;;;;;;;35.10;15.50;;;;;;;22.39;43.46;100075.15;82002;1297;3018628;-59
2024/04/11 06:30:49;;;;;;;38.40;15.40;;;;;;;22.46;43.65;100077.11;81376;1297;3011525;-60
2024/04/11 06:33:16;;;;;;;37.20;14.50;;;;;;;22.54;43.43;100072.60;81968;1294;3011243;-63
2024/04/11 06:35:47;;;;;;;33.30;14.70;;;;;;;22.57;43.16;100080.11;80743;1294;3052640;-60
2024/04/11 06:38:14;;;;;;;32.70;15.50;;;;;;;22.62;43.26;100072.42;81975;1295;3011520;-63
2024/04/11 06:40:47;;;;;;;31.40;14.70;;;;;;;22.63;43.06;100078.56;80689;1296;3040446;-61
2024/04/11 06:43:16;;;;;;;31.30;15.20;;;;;;;22.68;42.84;100084.54;81969;1295;3012722;-62
2024/04/11 06:45:45;;;;;;;34.70;14.90;;;;;;;22.72;42.74;100087.66;80724;1294;3048794;-63
2024/04/11 06:48:12;;;;;;;32.70;15.40;;;;;;;22.78;42.44;100091.05;82011;1298;3013027;-63
2024/04/11 06:50:39;;;;;;;40.00;15.20;;;;;;;22.76;42.31;100093.27;81933;1298;3011439;-64
2024/04/11 06:53:08;;;;;;;38.40;14.70;;;;;;;22.80;42.15;100093.33;80697;1296;3043803;-61
2024/04/11 06:55:35;;;;;;;32.60;15.90;;;;;;;22.81;41.85;100096.96;82007;1295;3011286;-61
2024/04/11 06:58:01;;;;;;;36.90;15.60;;;;;;;22.78;41.44;100092.92;82010;1294;3012851;-62
2024/04/11 07:00:41;;;;;;;51.10;16.60;;;;;;;22.81;41.05;100097.15;80720;1296;3040075;-62
2024/04/11 07:03:25;;;;;;;39.10;17.60;;;;;;;22.89;40.70;100099.71;80721;1294;3043874;-62
2024/04/11 07:06:01;;;;;;;34.50;16.90;;;;;;;22.97;40.23;100100.46;80733;1295;3052084;-62
2024/04/11 07:08:31;;;;;;;33.50;18.50;;;;;;;23.04;40.14;100103.52;80693;1295;3068842;-62
2024/04/11 07:13:55;;;;;;;28.60;15.60;;;;;;;23.16;39.22;100106.80;80693;1295;3047218;-62
2024/04/11 07:16:29;;;;;;;36.60;15.00;;;;;;;23.22;38.85;100106.70;81994;1294;3018381;-62
2024/04/11 07:18:57;;;;;;;30.10;12.20;;;;;;;23.30;38.18;100106.77;80708;1296;3040891;-67
2024/04/11 07:21:25;;;;;;;23.50;12.10;;;;;;;23.40;37.51;100105.71;81996;1294;3012642;-62
2024/04/11 07:23:56;;;;;;;22.50;10.40;;;;;;;23.49;35.97;100108.39;82019;1295;3011459;-63
2024/04/11 07:26:29;;;;;;;19.90;9.10;;;;;;;23.56;35.00;100103.66;80720;1295;3042845;-62
2024/04/11 07:29:05;;;;;;;33.20;11.50;;;;;;;23.66;34.27;100107.13;82014;1295;3012625;-62
2024/04/11 07:31:36;;;;;;;28.50;11.70;;;;;;;23.73;34.07;100102.11;80656;1296;3040257;-62
2024/04/11 07:34:03;;;;;;;27.60;12.10;;;;;;;23.84;34.27;100105.20;82011;1296;3013321;-61
2024/04/11 07:36:32;;;;;;;35.90;12.70;;;;;;;23.98;33.77;100107.35;81996;1294;3012895;-61
2024/04/11 07:39:01;;;;;;;27.10;10.80;;;;;;;24.08;33.09;100105.56;80758;1295;3044743;-62
2024/04/11 07:41:46;;;;;;;28.30;10.60;;;;;;;24.20;32.49;100100.11;82001;1299;3013439;-62
2024/04/11 07:44:22;;;;;;;30.60;9.20;;;;;;;24.36;32.48;100097.16;80715;1294;3044120;-62
2024/04/11 07:46:51;;;;;;;28.80;8.30;;;;;;;24.52;31.53;100096.91;80689;1294;3048391;-62
2024/04/11 07:49:17;;;;;;;41.50;11.70;;;;;;;24.64;31.13;100098.29;81988;1295;3012634;-61
2024/04/11 07:51:44;;;;;;;125.30;20.90;;;;;;;24.72;30.91;100097.02;82026;1294;3013539;-61
2024/04/11 07:54:15;;;;;;;137.10;23.50;;;;;;;24.78;30.96;100096.59;80707;1299;3043012;-63
2024/04/11 07:56:42;;;;;;;151.90;24.70;;;;;;;24.90;30.64;100094.55;81984;1298;3013234;-61
2024/04/11 07:59:13;;;;;;;104.50;18.40;;;;;;;25.00;29.98;100095.40;81451;1295;3011267;-62
2024/04/11 08:01:41;;;;;;;57.40;14.10;;;;;;;25.08;29.33;100094.14;82020;1294;3012324;-61
2024/04/11 08:04:12;;;;;;;40.70;13.40;;;;;;;25.17;29.55;100096.50;80665;1295;3017870;-62
2024/04/11 08:06:39;;;;;;;66.70;14.20;;;;;;;25.31;29.60;100101.27;81959;1295;3013240;-62
2024/04/11 08:09:08;;;;;;;58.70;14.40;;;;;;;25.42;29.20;100103.42;81444;1296;3011430;-62
2024/04/11 08:11:35;;;;;;;52.80;12.10;;;;;;;25.50;29.25;100103.98;82038;1294;3013091;-62
2024/04/11 08:14:04;;;;;;;32.20;9.80;;;;;;;25.56;28.87;100100.55;81994;1298;3012802;-62
2024/04/11 08:16:36;;;;;;;33.60;9.90;;;;;;;25.60;28.80;100097.30;80759;1295;3060071;-62
2024/04/11 08:19:04;;;;;;;37.90;11.30;;;;;;;25.68;28.87;100098.88;81975;1297;3012715;-61
2024/04/11 08:21:32;;;;;;;62.70;13.10;;;;;;;25.79;29.06;100098.83;80578;1294;3048097;-63
2024/04/11 08:24:00;;;;;;;59.40;13.70;;;;;;;25.86;28.41;100097.36;82009;1295;3011130;-62
2024/04/11 08:26:26;;;;;;;60.00;14.20;;;;;;;25.95;28.48;100098.98;82008;1295;3013153;-62
2024/04/11 08:28:55;;;;;;;83.00;16.20;;;;;;;25.95;28.51;100095.71;80723;1298;3043515;-62
2024/04/11 08:31:27;;;;;;;54.60;14.80;;;;;;;26.08;28.61;100099.48;82040;1298;3012746;-60
2024/04/11 08:33:58;;;;;;;41.90;11.70;;;;;;;26.20;28.15;100101.48;80747;1295;3042796;-59
2024/04/11 08:36:26;;;;;;;47.10;11.40;;;;;;;26.29;27.73;100097.59;81985;1295;3011280;-61
2024/04/11 08:38:57;;;;;;;47.50;11.80;;;;;;;26.38;27.55;100096.23;80739;1295;3017926;-60
2024/04/11 08:41:25;;;;;;;40.00;9.90;;;;;;;26.48;27.24;100096.87;82024;1294;3013305;-61
2024/04/11 08:43:56;;;;;;;32.50;9.50;;;;;;;26.58;27.55;100095.34;80730;1298;3040563;-61
2024/04/11 08:46:22;;;;;;;39.20;10.10;;;;;;;26.75;27.04;100092.52;81991;1296;3013436;-64
2024/04/11 08:48:52;;;;;;;40.70;10.60;;;;;;;26.86;26.92;100096.80;81475;1295;3011340;-60
2024/04/11 08:51:19;;;;;;;54.80;12.10;;;;;;;26.94;26.52;100094.27;81996;1300;3013078;-58
2024/04/11 08:53:47;;;;;;;44.40;11.30;;;;;;;26.99;26.43;100092.96;82004;1294;3012874;-61
2024/04/11 08:56:16;;;;;;;43.10;9.90;;;;;;;27.01;26.24;100091.50;80653;1296;3041309;-62
2024/04/11 08:58:44;;;;;;;42.00;10.80;;;;;;;27.03;26.43;100095.34;81962;1301;3012914;-59
2024/04/11 09:01:11;;;;;;;29.40;9.70;;;;;;;27.06;26.36;100094.40;82020;1295;3011217;-63
2024/04/11 09:03:40;;;;;;;25.90;9.00;;;;;;;27.16;26.50;100094.70;80617;1300;3042876;-58
2024/04/11 09:06:12;;;;;;;17.60;7.30;;;;;;;27.30;26.39;100095.34;81964;1294;3012325;-59
2024/04/11 09:08:40;;;;;;;26.70;8.40;;;;;;;27.41;26.39;100094.95;80730;1294;3043200;-60
2024/04/11 09:11:07;;;;;;;22.60;8.40;;;;;;;27.48;26.53;100094.77;81994;1297;3013275;-62
2024/04/11 09:13:36;;;;;;;28.00;10.20;;;;;;;27.45;26.87;100092.79;81977;1295;3013232;-58
2024/04/11 09:16:07;;;;;;;27.40;9.00;;;;;;;27.49;27.01;100091.38;80758;1295;3040434;-60
2024/04/11 09:18:33;;;;;;;37.00;10.10;;;;;;;27.60;27.27;100094.99;81988;1298;3012982;-59
2024/04/11 09:21:06;;;;;;;40.90;10.40;;;;;;;27.73;27.36;100094.64;81450;1297;3011326;-59
2024/04/11 09:23:51;;;;;;;44.90;10.90;;;;;;;27.88;27.10;100097.46;81981;1299;3012719;-58
2024/04/11 09:26:19;;;;;;;;;;;;;;;27.99;26.53;100098.02;80718;1300;3044383;-61
2024/04/11 09:28:45;;;;;;;14.50;5.30;;;;;;;28.07;25.92;100098.19;81980;1298;3018199;-59
2024/04/11 09:31:12;;;;;;;12.70;5.10;;;;;;;28.12;25.25;100100.60;81967;1295;3013133;-59
2024/04/11 09:33:42;;;;;;;25.30;7.90;;;;;;;28.05;25.04;100095.97;80762;1295;3017604;-57
2024/04/11 09:36:10;;;;;;;22.70;7.50;;;;;;;28.08;25.40;100096.61;81993;1295;3013297;-60
2024/04/11 09:38:41;;;;;;;15.90;6.90;;;;;;;28.23;25.26;100097.77;81477;1295;3011645;-59
2024/04/11 09:41:11;;;;;;;23.00;7.10;;;;;;;28.34;24.82;100097.29;81934;1300;3012843;-61
2024/04/11 09:45:21;;;;;;;15.30;5.80;;;;;;;28.59;24.77;100087.88;80221;1301;3012872;-56
2024/04/11 09:47:48;;;;;;;16.30;5.70;;;;;;;28.51;23.94;100089.11;78975;1300;3013205;-59
2024/04/11 09:50:16;;;;;;;19.70;6.00;;;;;;;28.57;24.04;100086.66;79117;1302;3013918;-58
2024/04/11 09:52:45;;;;;;;15.20;5.30;;;;;;;28.65;24.14;100082.95;77830;1303;3053212;-59
2024/04/11 09:55:15;;;;;;;8.20;4.50;;;;;;;28.78;23.78;100085.77;79134;1299;3013521;-60
2024/04/11 09:57:44;;;;;;;10.40;4.30;;;;;;;28.91;23.51;100087.46;77837;1298;3231167;-58
2024/04/11 10:00:48;;;;;;;13.50;4.40;;;;;;;28.87;23.19;100083.61;79196;1299;3012571;-62
2024/04/11 10:03:12;;;;;;;12.70;4.70;;;;;;;28.85;23.49;100082.02;78153;1298;3053794;-59
2024/04/11 10:05:45;;;;;;;10.10;4.10;;;;;;;28.91;23.59;100080.60;79376;1297;3013678;-60
2024/04/11 10:08:33;;;;;;;9.80;4.10;;;;;;;29.06;23.01;100078.82;78317;1301;3052879;-60
2024/04/11 10:11:03;;;;;;;7.90;4.20;;;;;;;29.17;22.89;100085.30;78120;1300;3069761;-60
2024/04/11 10:13:38;;;;;;;10.50;3.70;;;;;;;29.10;22.76;100081.67;79354;1299;3013048;-61
2024/04/11 10:16:13;;;;;;;11.00;3.80;;;;;;;29.14;22.85;100083.89;78010;1298;3055676;-60
2024/04/11 10:18:51;;;;;;;10.70;3.60;;;;;;;29.21;23.01;100086.05;78636;1297;3013254;-60
2024/04/11 10:21:29;;;;;;;8.30;4.20;;;;;;;29.16;23.24;100086.75;78236;1300;3050247;-58
2024/04/11 10:23:57;;;;;;;13.40;4.30;;;;;;;29.22;23.21;100086.08;78028;1298;3053726;-59
2024/04/11 10:26:33;;;;;;;8.20;4.70;;;;;;;29.30;22.98;100083.30;79198;1300;3013595;-61
2024/04/11 10:29:18;;;;;;;8.30;4.80;;;;;;;29.27;22.88;100082.48;78024;1301;3053022;-59
2024/04/11 10:31:56;;;;;;;16.60;6.30;;;;;;;29.21;22.89;100085.94;77998;1301;3068419;-59
2024/04/11 10:34:37;;;;;;;12.40;6.20;;;;;;;29.10;23.08;100083.55;78267;1299;3051455;-60
2024/04/11 10:37:07;;;;;;;15.30;6.90;;;;;;;29.29;23.12;100084.70;78078;1299;3056719;-62
2024/04/11 10:39:35;;;;;;;14.10;6.80;;;;;;;29.47;22.94;100091.36;79438;1299;3013169;-61
2024/04/11 10:42:07;;;;;;;12.00;7.00;;;;;;;29.41;22.92;100090.30;78769;1298;3011515;-62
2024/04/11 10:44:34;;;;;;;10.60;6.70;;;;;;;29.37;22.94;100091.50;79249;1298;3011776;-61
2024/04/11 10:47:07;;;;;;;14.70;7.00;;;;;;;29.42;23.14;100097.08;78274;1297;3028061;-62
2024/04/11 10:49:41;;;;;;;12.70;6.60;;;;;;;29.33;22.92;100096.92;79240;1300;3011809;-61
2024/04/11 10:52:12;;;;;;;9.90;5.80;;;;;;;29.27;22.55;100094.80;78153;1298;3068411;-59
2024/04/11 10:54:43;;;;;;;10.80;5.30;;;;;;;29.39;22.48;100094.41;79609;1300;3011621;-61
2024/04/11 10:57:14;;;;;;;11.80;6.10;;;;;;;29.40;22.43;100091.80;78087;1298;3057060;-60
2024/04/11 10:59:51;;;;;;;11.30;6.60;;;;;;;29.44;22.30;100085.08;79255;1298;3011940;-61
2024/04/11 11:02:23;;;;;;;11.80;6.00;;;;;;;29.50;22.44;100089.16;77959;1299;3053980;-60
2024/04/11 11:04:54;;;;;;;10.50;6.40;;;;;;;29.59;22.26;100089.04;79375;1297;3012923;-59
2024/04/11 11:07:29;;;;;;;11.20;6.70;;;;;;;29.44;22.37;100083.61;78083;1301;3052759;-62
2024/04/11 11:09:57;;;;;;;14.80;6.40;;;;;;;29.47;22.55;100086.91;79371;1299;3011683;-63
2024/04/11 11:12:25;;;;;;;14.50;6.20;;;;;;;29.47;22.63;100078.46;78125;1301;3069585;-60
2024/04/11 11:14:55;;;;;;;15.50;5.70;;;;;;;29.59;22.41;100077.16;79403;1299;3011930;-61
2024/04/11 11:17:27;;;;;;;10.60;5.30;;;;;;;29.73;22.11;100076.80;78708;1299;3013341;-61
2024/04/11 11:19:55;;;;;;;15.60;7.10;;;;;;;29.79;21.99;100069.81;79291;1298;3011787;-61
2024/04/11 11:22:36;;;;;;;10.60;6.00;;;;;;;29.71;21.73;100064.00;78232;1301;3026660;-63